Time;durP1;ratioP1;P1;durP2;ratioP2;P2;SDS_P1;SDS_P2;PMS_P1;PMS_P2;Temp;Humidity;BMP_temperature;BMP_pressure;BME280_temperature;BME280_humidity;BME280_pressure;Samples;Min_cycle;Max_cycle;Signal;HPM_P1;HPM_P2
2022/06/01 00:00:29;;;;;;;4.82;4.53;;;;;;;13.52;nan;98458.75;4988304;28;20058;-60
2022/06/01 00:02:55;;;;;;;3.90;3.50;;;;;;;13.47;nan;98458.91;4988942;28;20053;-60
2022/06/01 00:05:21;;;;;;;3.80;3.50;;;;;;;13.51;nan;98478.50;4990564;28;20544;-60
2022/06/01 00:07:47;;;;;;;5.05;4.50;;;;;;;13.45;nan;98470.16;4988251;28;20042;-59
2022/06/01 00:10:13;;;;;;;4.90;4.50;;;;;;;13.45;nan;98467.56;4988262;28;20063;-61
2022/06/01 00:12:39;;;;;;;5.18;4.10;;;;;;;13.54;nan;98473.25;4989347;28;20030;-60
2022/06/01 00:15:05;;;;;;;4.50;4.10;;;;;;;13.41;nan;98450.53;4993116;28;20049;-61
2022/06/01 00:17:31;;;;;;;4.45;4.13;;;;;;;13.48;nan;98468.31;4988079;28;20066;-61
2022/06/01 00:19:56;;;;;;;4.82;3.85;;;;;;;13.48;nan;98464.88;4986867;28;20531;-61
2022/06/01 00:22:22;;;;;;;4.03;3.70;;;;;;;13.47;nan;98460.63;4997108;28;20060;-61
2022/06/01 00:24:48;;;;;;;4.38;4.05;;;;;;;13.54;nan;98477.53;5007905;28;20045;-61
2022/06/01 00:27:15;;;;;;;6.57;4.10;;;;;;;13.52;nan;98480.19;4991624;28;20025;-59
2022/06/01 00:29:41;;;;;;;10.00;8.30;;;;;;;13.52;nan;98477.63;4994456;28;20037;-59
2022/06/01 00:32:10;;;;;;;12.13;10.90;;;;;;;13.53;nan;98481.03;4989715;28;20504;-61
2022/06/01 00:34:36;;;;;;;7.55;6.85;;;;;;;13.54;nan;98491.28;4994858;28;20106;-59
2022/06/01 00:37:02;;;;;;;5.00;4.60;;;;;;;13.62;nan;98484.13;4991114;28;20030;-60
2022/06/01 00:39:27;;;;;;;4.43;4.10;;;;;;;13.54;nan;98478.41;4987413;28;20362;-60
2022/06/01 00:41:53;;;;;;;4.38;4.00;;;;;;;13.63;nan;98488.41;4988111;28;20065;-60
2022/06/01 00:44:18;;;;;;;5.32;3.97;;;;;;;13.64;nan;98487.50;4988682;28;20033;-60
2022/06/01 00:46:44;;;;;;;6.53;4.22;;;;;;;13.58;nan;98492.00;4989709;28;20430;-58
2022/06/01 00:49:20;;;;;;;5.10;4.70;;;;;;;13.48;nan;98480.34;4987591;28;20394;-61
2022/06/01 00:51:47;;;;;;;4.40;4.00;;;;;;;13.59;nan;98493.69;4988260;28;20500;-59
2022/06/01 00:54:14;;;;;;;5.68;5.20;;;;;;;13.58;nan;98492.84;4988736;28;20036;-60
2022/06/01 00:56:46;;;;;;;6.00;4.85;;;;;;;13.58;nan;98498.00;4989300;28;20100;-61
2022/06/01 00:59:17;;;;;;;6.53;4.93;;;;;;;13.45;nan;98485.59;4992679;28;20065;-61
2022/06/01 01:01:43;;;;;;;4.65;4.25;;;;;;;13.46;nan;98485.53;4994922;28;20074;-59
2022/06/01 01:04:10;;;;;;;4.93;4.50;;;;;;;13.45;nan;98506.22;4991638;28;20061;-59
2022/06/01 01:06:41;;;;;;;4.72;4.32;;;;;;;13.42;nan;98490.84;4993224;28;20034;-61
2022/06/01 01:09:08;;;;;;;5.78;4.05;;;;;;;13.45;nan;98507.03;4993105;28;20034;-61
2022/06/01 01:11:47;;;;;;;4.57;4.18;;;;;;;13.54;nan;98501.56;4995315;28;20037;-61
2022/06/01 01:14:16;;;;;;;4.25;3.47;;;;;;;13.54;nan;98496.41;4995739;28;20042;-61
2022/06/01 01:16:42;;;;;;;3.75;3.50;;;;;;;13.63;nan;98488.41;4991729;28;20106;-61
2022/06/01 01:19:19;;;;;;;3.33;3.05;;;;;;;13.63;nan;98472.94;4991557;28;20058;-61
2022/06/01 01:21:56;;;;;;;3.45;3.15;;;;;;;13.70;nan;98491.63;4992155;28;20061;-61
2022/06/01 01:24:25;;;;;;;3.13;2.92;;;;;;;13.68;nan;98475.38;4994025;28;20076;-61
2022/06/01 01:26:52;;;;;;;4.35;4.00;;;;;;;13.79;nan;98493.88;4994147;28;20076;-61
2022/06/01 01:29:34;;;;;;;3.83;3.20;;;;;;;13.78;nan;98481.91;4992293;28;20038;-61
2022/06/01 01:32:00;;;;;;;3.58;3.28;;;;;;;13.59;nan;98457.63;4992647;28;20054;-61
2022/06/01 01:34:25;;;;;;;3.92;3.60;;;;;;;13.68;nan;98473.63;4991195;28;20044;-61
2022/06/01 01:36:56;;;;;;;4.18;3.50;;;;;;;13.68;nan;98465.91;4991396;28;20034;-61
2022/06/01 01:39:24;;;;;;;3.83;3.53;;;;;;;13.73;nan;98463.16;4993084;28;20499;-61
2022/06/01 01:41:53;;;;;;;3.90;3.67;;;;;;;13.62;nan;98466.09;4990928;28;20050;-61
2022/06/01 01:44:22;;;;;;;3.42;3.22;;;;;;;13.63;nan;98465.22;4991755;28;20037;-59
2022/06/01 01:46:49;;;;;;;3.90;3.58;;;;;;;13.76;nan;98475.94;4992726;28;20047;-61
2022/06/01 01:49:21;;;;;;;4.22;3.67;;;;;;;13.68;nan;98471.06;4996484;28;20614;-61
2022/06/01 01:51:47;;;;;;;4.20;3.90;;;;;;;13.73;nan;98474.31;4992087;28;20037;-62
2022/06/01 01:54:29;;;;;;;5.43;4.03;;;;;;;13.69;nan;98488.19;4989439;28;20033;-61
2022/06/01 01:57:07;;;;;;;3.65;3.35;;;;;;;13.68;nan;98483.09;4998377;28;20041;-62
2022/06/01 01:59:47;;;;;;;4.18;3.88;;;;;;;13.60;nan;98485.09;4994783;28;20121;-61
2022/06/01 02:02:26;;;;;;;3.97;3.63;;;;;;;13.64;nan;98474.63;4993741;28;20382;-61
2022/06/01 02:08:48;;;;;;;3.85;3.58;;;;;;;13.60;nan;98465.31;4994986;28;20098;-63
2022/06/01 02:14:43;;;;;;;4.47;4.07;;;;;;;13.58;nan;98445.63;4991573;28;20557;-61
2022/06/01 02:17:28;;;;;;;5.80;3.55;;;;;;;13.60;nan;98465.31;4992536;28;20574;-61
2022/06/01 02:20:15;;;;;;;4.20;3.78;;;;;;;13.58;nan;98461.94;5005799;28;20035;-61
2022/06/01 02:22:41;;;;;;;3.65;3.17;;;;;;;13.57;nan;98472.31;4991707;28;20034;-61
2022/06/01 02:25:11;;;;;;;3.50;3.30;;;;;;;13.60;nan;98470.47;4992107;28;20153;-61
2022/06/01 02:27:38;;;;;;;3.40;3.10;;;;;;;13.53;nan;98463.84;4992578;28;20113;-61
2022/06/01 02:30:22;;;;;;;3.72;3.42;;;;;;;13.47;nan;98466.63;4990598;28;20034;-61
2022/06/01 02:32:48;;;;;;;3.40;3.13;;;;;;;13.46;nan;98458.94;4989852;28;20132;-61
2022/06/01 02:35:17;;;;;;;3.53;3.33;;;;;;;13.45;nan;98463.25;4993824;28;20370;-61
2022/06/01 02:37:46;;;;;;;3.60;3.30;;;;;;;13.35;nan;98463.59;4992837;28;20058;-60
2022/06/01 02:40:17;;;;;;;3.25;3.05;;;;;;;13.40;nan;98479.75;4989667;28;20351;-60
2022/06/01 02:42:49;;;;;;;3.83;2.65;;;;;;;13.40;nan;98480.59;4990999;28;20041;-61
2022/06/01 02:45:15;;;;;;;3.20;2.90;;;;;;;13.34;nan;98485.94;4995897;28;20060;-60
2022/06/01 02:47:43;;;;;;;3.05;2.30;;;;;;;13.32;nan;98474.03;4995383;28;20463;-59
2022/06/01 02:50:13;;;;;;;2.83;2.72;;;;;;;13.34;nan;98487.66;4990337;28;20038;-61
2022/06/01 02:52:38;;;;;;;3.08;2.78;;;;;;;13.39;nan;98490.94;4992782;28;20577;-61
2022/06/01 02:55:05;;;;;;;2.60;2.40;;;;;;;13.33;nan;98484.25;4991054;28;20034;-60
2022/06/01 02:57:35;;;;;;;2.15;2.05;;;;;;;13.31;nan;98491.19;4991184;28;20053;-60
2022/06/01 03:00:04;;;;;;;2.28;2.17;;;;;;;13.23;nan;98486.31;4991441;28;20031;-61
2022/06/01 03:02:29;;;;;;;2.40;2.30;;;;;;;13.20;nan;98480.38;4993210;28;20064;-61
2022/06/01 03:04:55;;;;;;;2.38;2.17;;;;;;;13.32;nan;98487.75;4990046;28;20033;-60
2022/06/01 03:07:20;;;;;;;2.85;2.58;;;;;;;13.27;nan;98481.88;4989499;28;20047;-60
2022/06/01 03:09:45;;;;;;;2.88;2.67;;;;;;;13.20;nan;98480.38;4990152;28;20460;-61
2022/06/01 03:12:11;;;;;;;2.67;2.47;;;;;;;13.14;nan;98478.88;4989735;28;20461;-61
2022/06/01 03:14:37;;;;;;;2.40;2.20;;;;;;;13.29;nan;98495.53;4991463;28;20030;-61
2022/06/01 03:17:05;;;;;;;2.60;2.50;;;;;;;13.16;nan;98494.25;4991438;28;20460;-60
2022/06/01 03:19:30;;;;;;;2.47;2.28;;;;;;;13.03;nan;98496.31;4987918;28;20594;-61
2022/06/01 03:21:55;;;;;;;3.78;2.78;;;;;;;12.93;nan;98491.53;4989646;28;20038;-61
2022/06/01 03:24:21;;;;;;;3.20;2.63;;;;;;;12.90;nan;98492.44;4988900;28;20022;-61
2022/06/01 03:26:46;;;;;;;3.83;3.38;;;;;;;12.82;nan;98500.41;4991649;28;20038;-61
2022/06/01 03:29:12;;;;;;;3.13;2.92;;;;;;;12.82;nan;98500.41;4988704;28;20041;-60
2022/06/01 03:31:38;;;;;;;3.70;3.42;;;;;;;12.79;nan;98499.66;4993581;28;20539;-61
2022/06/01 03:34:04;;;;;;;3.30;3.10;;;;;;;12.79;nan;98495.34;4993929;28;20562;-61
2022/06/01 03:36:30;;;;;;;3.50;3.22;;;;;;;12.78;nan;98498.81;4989657;28;20049;-60
2022/06/01 03:38:56;;;;;;;3.75;3.45;;;;;;;12.80;nan;98502.19;4989833;28;20124;-61
2022/06/01 03:41:22;;;;;;;3.20;3.00;;;;;;;12.86;nan;98490.03;4991076;28;20064;-61
2022/06/01 03:46:33;;;;;;;4.88;3.00;;;;;;;13.13;nan;98499.50;4989605;28;20396;-60
2022/06/01 03:48:59;;;;;;;3.28;3.03;;;;;;;13.20;nan;98499.25;4990994;28;20092;-61
2022/06/01 03:51:26;;;;;;;3.78;3.28;;;;;;;13.31;nan;98506.66;4993428;28;20465;-60
2022/06/01 03:53:53;;;;;;;4.28;2.88;;;;;;;13.39;nan;98489.22;4991774;28;20064;-61
2022/06/01 03:56:22;;;;;;;3.33;3.10;;;;;;;13.53;nan;98505.06;4988229;28;20500;-61
2022/06/01 03:58:49;;;;;;;3.30;3.10;;;;;;;13.65;nan;98504.66;4988559;28;20323;-61
2022/06/01 04:01:15;;;;;;;4.38;3.85;;;;;;;13.68;nan;98483.94;4988961;28;20030;-60
2022/06/01 04:03:40;;;;;;;4.57;4.20;;;;;;;13.93;nan;98506.28;4987892;28;20047;-61
2022/06/01 04:06:06;;;;;;;4.53;4.13;;;;;;;13.99;nan;98508.66;4988804;28;20033;-60
2022/06/01 04:08:31;;;;;;;4.18;3.90;;;;;;;14.14;nan;98515.84;4991665;28;20026;-61
2022/06/01 04:10:56;;;;;;;3.70;3.50;;;;;;;14.25;nan;98518.06;4991915;28;20027;-60
2022/06/01 04:13:25;;;;;;;3.60;3.40;;;;;;;14.29;nan;98506.75;4988215;28;20026;-60
2022/06/01 04:15:50;;;;;;;4.28;3.97;;;;;;;14.37;nan;98523.66;4989331;28;20041;-61
2022/06/01 04:18:15;;;;;;;4.47;3.47;;;;;;;14.45;nan;98524.22;4990034;28;20038;-61
2022/06/01 04:20:42;;;;;;;3.90;3.60;;;;;;;14.53;nan;98523.94;4993415;28;20696;-60
2022/06/01 04:23:07;;;;;;;3.97;2.97;;;;;;;14.64;nan;98525.22;4990622;28;20100;-61
2022/06/01 04:25:33;;;;;;;3.35;2.75;;;;;;;14.62;nan;98518.44;4990990;28;20030;-61
2022/06/01 04:27:58;;;;;;;3.58;3.38;;;;;;;14.79;nan;98515.22;4992326;28;20130;-60
2022/06/01 04:30:24;;;;;;;3.53;3.33;;;;;;;14.94;nan;98528.38;4995836;28;20042;-62
2022/06/01 04:32:52;;;;;;;3.28;3.08;;;;;;;15.03;nan;98522.03;4998645;28;20073;-61
2022/06/01 04:35:19;;;;;;;4.60;4.18;;;;;;;15.16;nan;98530.97;5000722;28;20038;-59
2022/06/01 04:37:45;;;;;;;4.43;3.88;;;;;;;15.18;nan;98520.59;5001839;28;20497;-60
2022/06/01 04:40:15;;;;;;;3.58;3.05;;;;;;;15.38;nan;98537.00;4998128;28;20146;-60
2022/06/01 04:42:41;;;;;;;2.50;2.28;;;;;;;15.52;nan;98529.56;4996377;28;20031;-60
2022/06/01 04:45:09;;;;;;;2.85;2.70;;;;;;;15.61;nan;98523.19;4995887;28;20034;-59
2022/06/01 04:47:35;;;;;;;2.50;2.40;;;;;;;15.88;nan;98528.94;4996659;28;20050;-60
2022/06/01 04:50:00;;;;;;;2.22;2.10;;;;;;;16.01;nan;98530.09;4993541;28;20448;-59
2022/06/01 04:52:26;;;;;;;2.50;2.33;;;;;;;16.17;nan;98535.47;4994831;28;20832;-60
2022/06/01 04:54:51;;;;;;;2.10;2.00;;;;;;;16.26;nan;98525.56;4996795;28;20037;-61
2022/06/01 04:57:17;;;;;;;2.35;2.25;;;;;;;16.49;nan;98528.91;4999736;28;20039;-62
2022/06/01 04:59:42;;;;;;;2.30;2.20;;;;;;;16.65;nan;98524.75;4997112;28;20029;-62
2022/06/01 05:02:08;;;;;;;2.10;2.00;;;;;;;16.75;nan;98520.84;4995168;28;20062;-61
2022/06/01 05:04:34;;;;;;;1.90;1.80;;;;;;;16.90;nan;98520.13;4997807;28;20087;-61
2022/06/01 05:07:00;;;;;;;2.10;1.92;;;;;;;16.99;nan;98530.06;4997383;28;20124;-60
2022/06/01 05:09:27;;;;;;;2.08;1.98;;;;;;;16.94;nan;98513.88;4994204;28;20458;-60
2022/06/01 05:11:52;;;;;;;2.13;2.03;;;;;;;16.98;nan;98515.41;4994361;28;20037;-61
2022/06/01 05:14:18;;;;;;;2.88;2.05;;;;;;;17.02;nan;98523.88;4995168;28;20035;-59
2022/06/01 05:16:44;;;;;;;1.90;1.80;;;;;;;16.95;nan;98536.28;4994962;28;20030;-58
2022/06/01 05:19:09;;;;;;;3.00;2.80;;;;;;;17.02;nan;98522.13;4996304;28;20476;-61
2022/06/01 05:21:35;;;;;;;1.77;1.70;;;;;;;17.14;nan;98536.28;4995597;28;20030;-58
2022/06/01 05:24:00;;;;;;;3.72;2.45;;;;;;;17.17;nan;98531.81;4997101;28;20598;-61
2022/06/01 05:26:26;;;;;;;2.40;2.00;;;;;;;17.27;nan;98538.22;4992907;28;20057;-60
2022/06/01 05:28:52;;;;;;;2.33;2.13;;;;;;;17.31;nan;98534.56;4993671;28;20088;-61
2022/06/01 05:31:19;;;;;;;2.83;2.60;;;;;;;17.42;nan;98547.03;4994350;28;20053;-61
2022/06/01 05:33:45;;;;;;;2.40;2.17;;;;;;;17.52;nan;98544.84;4999119;28;20404;-61
2022/06/01 05:36:12;;;;;;;2.50;2.30;;;;;;;17.51;nan;98525.84;4997711;28;20026;-60
2022/06/01 05:38:38;;;;;;;2.72;2.53;;;;;;;17.50;nan;98533.69;4992380;28;20054;-61
2022/06/01 05:41:04;;;;;;;2.65;2.45;;;;;;;17.56;nan;98530.81;4994846;28;20058;-60
2022/06/01 05:43:30;;;;;;;2.42;2.33;;;;;;;17.83;nan;98547.63;4998756;28;20066;-59
2022/06/01 05:45:56;;;;;;;2.40;2.30;;;;;;;17.89;nan;98542.13;4995715;28;20061;-61
2022/06/01 05:48:22;;;;;;;2.20;2.00;;;;;;;17.87;nan;98523.19;4990814;28;20048;-60
2022/06/01 05:50:48;;;;;;;2.17;2.08;;;;;;;18.02;nan;98540.59;4992060;28;20049;-60
2022/06/01 05:53:14;;;;;;;2.10;2.00;;;;;;;18.09;nan;98536.78;4991576;28;20025;-59
2022/06/01 05:55:40;;;;;;;2.20;2.10;;;;;;;18.22;nan;98540.44;4992019;28;20033;-59
2022/06/01 05:58:21;;;;;;;2.00;1.90;;;;;;;18.36;nan;98551.88;4990291;28;20026;-61
2022/06/01 06:00:49;;;;;;;2.25;2.15;;;;;;;18.39;nan;98549.09;4993566;28;20041;-61
2022/06/01 06:03:16;;;;;;;2.03;1.92;;;;;;;18.42;nan;98546.34;4994741;28;20030;-60
2022/06/01 06:08:26;;;;;;;2.78;1.83;;;;;;;18.54;nan;98556.13;4989737;28;20399;-63
2022/06/01 06:10:52;;;;;;;1.65;1.55;;;;;;;18.63;nan;98558.22;4994545;28;20026;-59
2022/06/01 06:13:17;;;;;;;2.22;2.13;;;;;;;18.56;nan;98564.66;4996182;28;20514;-60
2022/06/01 06:15:42;;;;;;;1.90;1.80;;;;;;;18.60;nan;98550.59;4991173;28;20034;-58
2022/06/01 06:18:12;;;;;;;1.90;1.80;;;;;;;18.59;nan;98552.34;4989422;28;20587;-61
2022/06/01 06:20:41;;;;;;;3.75;2.22;;;;;;;18.71;nan;98561.28;4990522;28;20552;-59
2022/06/01 06:23:07;;;;;;;3.08;2.00;;;;;;;18.82;nan;98558.09;4990726;28;20145;-61
2022/06/01 06:25:32;;;;;;;2.60;2.10;;;;;;;19.01;nan;98567.41;4991166;28;20343;-61
2022/06/01 06:27:58;;;;;;;2.22;2.13;;;;;;;19.04;nan;98569.88;4991824;28;20436;-58
2022/06/01 06:30:23;;;;;;;2.35;2.25;;;;;;;19.03;nan;98570.78;4995600;28;20579;-60
2022/06/01 06:32:48;;;;;;;2.55;1.95;;;;;;;19.03;nan;98565.59;4994750;28;20622;-61
2022/06/01 06:35:14;;;;;;;2.03;1.92;;;;;;;19.03;nan;98568.19;4989611;28;20026;-62
2022/06/01 06:37:40;;;;;;;1.67;1.60;;;;;;;19.07;nan;98559.31;4992731;28;20395;-61
2022/06/01 06:40:06;;;;;;;1.73;1.60;;;;;;;19.29;nan;98568.53;4995866;28;20045;-62
2022/06/01 06:42:31;;;;;;;1.95;1.85;;;;;;;19.24;nan;98578.31;4991211;28;20034;-59
2022/06/01 06:44:57;;;;;;;1.90;1.80;;;;;;;19.43;nan;98579.03;4990914;28;20841;-60
2022/06/01 06:47:22;;;;;;;2.22;2.05;;;;;;;19.49;nan;98584.72;4991000;28;20539;-60
2022/06/01 06:49:48;;;;;;;2.00;1.90;;;;;;;19.47;nan;98591.78;4990054;28;20033;-61
2022/06/01 06:52:14;;;;;;;8.07;2.78;;;;;;;19.57;nan;98581.69;4989909;28;20040;-60
2022/06/01 06:54:40;;;;;;;2.35;2.00;;;;;;;19.69;nan;98591.41;4989739;28;20572;-61
2022/06/01 06:57:06;;;;;;;2.30;2.08;;;;;;;19.70;nan;98593.09;4992333;28;20387;-60
2022/06/01 06:59:32;;;;;;;2.05;1.95;;;;;;;19.78;nan;98600.44;4993903;28;20536;-61
2022/06/01 07:01:57;;;;;;;2.25;1.80;;;;;;;19.75;nan;98595.44;4992623;28;20507;-60
2022/06/01 07:04:22;;;;;;;3.53;2.10;;;;;;;19.85;nan;98604.41;4989219;28;20030;-60
2022/06/01 07:06:48;;;;;;;2.00;1.90;;;;;;;19.81;nan;98585.53;4994289;28;20045;-60
2022/06/01 07:09:13;;;;;;;1.90;1.80;;;;;;;19.86;nan;98600.88;4990419;28;20603;-61
2022/06/01 07:11:39;;;;;;;1.80;1.70;;;;;;;20.00;nan;98599.16;4990879;28;20037;-62
2022/06/01 07:14:04;;;;;;;2.15;1.55;;;;;;;20.01;nan;98589.56;4990744;28;20025;-61
2022/06/01 07:16:33;;;;;;;1.92;1.83;;;;;;;20.24;nan;98598.66;4990117;28;20479;-61
2022/06/01 07:19:01;;;;;;;2.55;1.88;;;;;;;20.15;nan;98599.19;4989971;28;20038;-60
2022/06/01 07:21:28;;;;;;;2.28;1.98;;;;;;;20.08;nan;98598.69;4991038;28;20043;-60
2022/06/01 07:23:54;;;;;;;2.80;1.60;;;;;;;20.32;nan;98588.66;4991990;28;20666;-60
2022/06/01 07:26:22;;;;;;;2.28;1.92;;;;;;;20.33;nan;98587.72;4988802;28;20073;-60
2022/06/01 07:28:48;;;;;;;2.08;1.63;;;;;;;20.51;nan;98599.66;4988471;28;20046;-61
2022/06/01 07:31:14;;;;;;;2.10;1.92;;;;;;;20.50;nan;98590.16;4993748;28;20050;-60
2022/06/01 07:33:39;;;;;;;1.98;1.90;;;;;;;20.49;nan;98597.16;4990508;28;20039;-61
2022/06/01 07:36:07;;;;;;;4.22;2.10;;;;;;;20.62;nan;98593.81;4989629;28;20033;-61
2022/06/01 07:44:13;;;;;;;1.83;1.73;;;;;;;20.48;nan;98590.25;4988347;28;20044;-58
2022/06/01 07:46:39;;;;;;;1.60;1.60;;;;;;;20.57;nan;98614.09;4989851;28;20038;-60
2022/06/01 07:49:08;;;;;;;1.60;1.50;;;;;;;20.68;nan;98614.28;4993171;28;20142;-60
2022/06/01 07:51:38;;;;;;;1.52;1.42;;;;;;;20.74;nan;98616.53;4992265;28;20165;-58
2022/06/01 07:54:05;;;;;;;2.13;1.70;;;;;;;20.62;nan;98617.25;4988433;28;20064;-57
2022/06/01 07:56:31;;;;;;;2.03;1.67;;;;;;;20.81;nan;98608.22;4992570;28;20154;-58
2022/06/01 07:58:56;;;;;;;1.67;1.58;;;;;;;20.83;nan;98606.38;4994476;28;20483;-59
2022/06/01 08:01:25;;;;;;;2.13;1.60;;;;;;;21.02;nan;98610.44;4990946;28;20060;-58
2022/06/01 08:03:56;;;;;;;1.80;1.70;;;;;;;21.10;nan;98619.47;4988016;28;20042;-59
2022/06/01 08:06:23;;;;;;;2.03;1.77;;;;;;;21.31;nan;98627.75;4993088;28;20129;-62
2022/06/01 08:08:48;;;;;;;1.60;1.50;;;;;;;21.26;nan;98622.84;4992854;28;20044;-60
2022/06/01 08:11:14;;;;;;;1.90;1.80;;;;;;;21.09;nan;98625.63;4990035;28;20912;-61
2022/06/01 08:13:40;;;;;;;1.90;1.80;;;;;;;21.28;nan;98618.38;4991553;28;20041;-62
2022/06/01 08:16:06;;;;;;;1.98;1.88;;;;;;;21.55;nan;98623.63;4994660;28;20473;-64
2022/06/01 08:18:31;;;;;;;1.77;1.67;;;;;;;21.45;nan;98626.91;4991290;28;20761;-65
2022/06/01 08:20:57;;;;;;;1.92;1.83;;;;;;;21.27;nan;98626.28;4987311;28;20029;-64
2022/06/01 08:23:25;;;;;;;3.03;1.80;;;;;;;21.28;nan;98610.56;4987577;28;20050;-66
2022/06/01 08:25:51;;;;;;;2.25;2.15;;;;;;;21.28;nan;98623.59;4991860;28;20226;-64
2022/06/01 08:28:18;;;;;;;2.35;1.60;;;;;;;21.24;nan;98627.31;4991927;28;20581;-64
2022/06/01 08:30:43;;;;;;;1.73;1.55;;;;;;;21.26;nan;98620.22;4988352;28;20423;-65
2022/06/01 08:33:09;;;;;;;2.17;2.03;;;;;;;21.36;nan;98623.94;4990292;28;20037;-64
2022/06/01 08:35:38;;;;;;;3.05;1.70;;;;;;;21.75;nan;98617.97;4990651;28;20038;-64
2022/06/01 08:38:04;;;;;;;2.60;1.60;;;;;;;21.58;nan;98615.59;4989090;28;20563;-66
2022/06/01 08:40:39;;;;;;;1.85;1.75;;;;;;;21.71;nan;98626.94;4988310;28;20035;-65
2022/06/01 08:43:06;;;;;;;;;;;;;;;21.76;nan;98629.25;4998829;28;20408;-66
2022/06/01 08:45:33;;;;;;;2.03;1.75;;;;;;;21.90;nan;98597.03;4992631;28;19917;-66
2022/06/01 08:47:59;;;;;;;1.90;1.80;;;;;;;21.98;nan;98620.91;4989265;28;20046;-66
2022/06/01 08:50:36;;;;;;;1.77;1.67;;;;;;;22.07;nan;98617.66;4988075;28;20260;-63
2022/06/01 08:53:05;;;;;;;3.88;1.67;;;;;;;21.71;nan;98611.28;4991951;28;20355;-64
2022/06/01 08:55:58;;;;;;;2.13;2.03;;;;;;;22.15;nan;98616.22;4993056;28;20038;-64
2022/06/01 08:58:33;;;;;;;2.33;2.13;;;;;;;21.90;nan;98617.91;4981413;28;20081;-59
2022/06/01 09:01:10;;;;;;;1.80;1.70;;;;;;;22.15;nan;98612.78;4988130;28;20038;-61
2022/06/01 09:04:28;;;;;;;6.63;2.33;;;;;;;22.30;nan;98619.59;4990184;28;20129;-61
2022/06/01 09:07:31;;;;;;;1.85;1.75;;;;;;;22.55;nan;98617.00;4979673;28;20088;-61
2022/06/01 09:10:27;;;;;;;1.52;1.52;;;;;;;22.14;nan;98619.78;4987691;28;20560;-61
2022/06/01 09:13:11;;;;;;;2.38;1.73;;;;;;;22.45;nan;98618.56;4987821;28;20542;-61
2022/06/01 09:15:45;;;;;;;2.33;1.50;;;;;;;22.68;nan;98622.25;4990214;28;20331;-61
2022/06/01 09:18:12;;;;;;;4.18;1.88;;;;;;;22.62;nan;98614.78;4989158;28;20042;-60
2022/06/01 09:23:23;;;;;;;3.47;2.08;;;;;;;22.39;nan;98613.75;4995829;28;20052;-61
2022/06/01 09:25:53;;;;;;;2.13;1.98;;;;;;;22.68;nan;98624.84;4993915;28;20567;-61
2022/06/01 09:28:24;;;;;;;1.70;1.60;;;;;;;22.90;nan;98624.25;4991846;28;20037;-61
2022/06/01 09:31:31;;;;;;;3.72;2.33;;;;;;;23.11;nan;98622.75;4993323;28;20046;-61
2022/06/01 09:34:13;;;;;;;;;;;;;;;23.42;nan;98622.28;4973586;28;20049;-60
2022/06/01 09:37:16;;;;;;;1.67;1.55;;;;;;;23.58;nan;98609.78;4990609;28;19922;-61
2022/06/01 09:39:52;;;;;;;1.77;1.40;;;;;;;23.95;nan;98613.16;4979947;28;20643;-63
2022/06/01 09:42:28;;;;;;;3.08;2.80;;;;;;;24.24;nan;98618.88;4997309;28;20049;-62
2022/06/01 09:44:57;;;;;;;3.58;1.92;;;;;;;24.35;nan;98618.94;4992112;28;20048;-61
2022/06/01 09:47:42;;;;;;;1.90;1.80;;;;;;;24.52;nan;98633.38;4991796;28;20351;-61
2022/06/01 09:50:30;;;;;;;2.17;2.08;;;;;;;24.22;nan;98633.06;4991563;28;20624;-60
2022/06/01 09:53:11;;;;;;;2.00;1.90;;;;;;;24.23;nan;98619.84;4993236;28;20038;-61
2022/06/01 09:55:57;;;;;;;4.30;2.05;;;;;;;24.04;nan;98611.66;4991636;28;20578;-60
2022/06/01 10:07:19;;;;;;;2.10;2.00;;;;;;;23.87;nan;98597.19;4991984;28;20049;-59
2022/06/01 10:09:50;;;;;;;2.65;2.40;;;;;;;24.22;nan;98612.09;4995162;28;20038;-60
2022/06/01 10:12:33;;;;;;;2.30;2.10;;;;;;;24.31;nan;98616.66;4993108;28;20495;-60
2022/06/01 10:15:02;;;;;;;1.95;1.85;;;;;;;24.42;nan;98612.28;4990869;28;20052;-59
2022/06/01 10:17:42;;;;;;;1.90;1.80;;;;;;;24.64;nan;98606.22;4994555;28;20034;-59
2022/06/01 10:20:50;;;;;;;2.15;1.90;;;;;;;24.86;nan;98616.78;4994196;28;20042;-61
2022/06/01 10:23:34;;;;;;;2.33;2.03;;;;;;;25.00;nan;98613.06;4983943;28;20125;-60
2022/06/01 10:26:06;;;;;;;2.60;2.40;;;;;;;25.24;nan;98610.31;4993763;28;20038;-60
2022/06/01 10:28:40;;;;;;;2.88;2.08;;;;;;;24.73;nan;98605.53;4992619;28;20102;-60
2022/06/01 10:31:15;;;;;;;1.92;1.77;;;;;;;24.97;nan;98603.66;4989201;28;20128;-60
2022/06/01 10:33:45;;;;;;;2.22;2.13;;;;;;;24.86;nan;98602.84;4990693;28;20053;-59
2022/06/01 10:36:16;;;;;;;3.03;2.00;;;;;;;24.75;nan;98603.59;4989627;28;20042;-59
2022/06/01 10:39:02;;;;;;;3.47;2.10;;;;;;;25.04;nan;98606.63;4993795;28;20048;-59
2022/06/01 10:41:46;;;;;;;2.00;1.90;;;;;;;25.28;nan;98609.97;4991142;28;20408;-59
2022/06/01 10:44:21;;;;;;;2.72;2.60;;;;;;;25.34;nan;98606.84;4991147;28;20042;-59
2022/06/01 10:46:52;;;;;;;2.10;1.92;;;;;;;25.61;nan;98603.81;4995725;28;20042;-60
2022/06/01 10:49:27;;;;;;;3.67;2.00;;;;;;;25.12;nan;98608.66;4994156;28;20226;-59
2022/06/01 10:52:08;;;;;;;4.22;2.55;;;;;;;25.34;nan;98603.38;4990451;28;20109;-59
2022/06/01 10:54:45;;;;;;;2.63;2.40;;;;;;;25.21;nan;98600.03;4992015;28;20501;-59
2022/06/01 10:57:16;;;;;;;2.53;2.33;;;;;;;25.05;nan;98595.19;4990208;28;20473;-61
2022/06/01 10:59:42;;;;;;;2.85;1.95;;;;;;;25.05;nan;98600.44;4989326;28;20029;-58
2022/06/01 11:02:26;;;;;;;2.08;1.92;;;;;;;25.44;nan;98596.44;4989476;28;20072;-57
2022/06/01 11:05:23;;;;;;;2.42;2.22;;;;;;;25.20;nan;98599.25;4994326;28;20381;-60
2022/06/01 11:07:57;;;;;;;3.10;2.08;;;;;;;25.27;nan;98596.94;4993620;28;20041;-60
2022/06/01 11:10:42;;;;;;;3.65;2.50;;;;;;;25.13;nan;98598.03;4990013;28;20554;-58
2022/06/01 11:13:13;;;;;;;2.30;2.20;;;;;;;24.75;nan;98595.75;4991151;28;20165;-60
2022/06/01 11:16:13;;;;;;;1.90;1.70;;;;;;;25.04;nan;98588.25;4994452;28;20620;-60
2022/06/01 11:18:54;;;;;;;2.08;1.90;;;;;;;25.36;nan;98586.56;4970447;28;20412;-59
2022/06/01 11:21:50;;;;;;;2.30;2.00;;;;;;;25.26;nan;98588.22;4988460;28;20596;-58
2022/06/01 11:24:56;;;;;;;3.67;2.30;;;;;;;25.06;nan;98580.28;4994534;28;20460;-60
2022/06/01 11:27:41;;;;;;;2.33;2.08;;;;;;;25.32;nan;98565.91;4992813;28;20441;-58
2022/06/01 11:30:11;;;;;;;2.13;2.03;;;;;;;25.53;nan;98576.50;4989260;28;20062;-59
2022/06/01 11:32:45;;;;;;;1.92;1.83;;;;;;;25.54;nan;98568.53;4993376;28;20088;-58
2022/06/01 11:35:24;;;;;;;;;;;;;;;25.48;nan;98569.81;4994249;28;20096;-58
2022/06/01 11:38:05;;;;;;;2.28;2.13;;;;;;;25.65;nan;98551.88;4989918;28;19917;-57
2022/06/01 11:40:37;;;;;;;2.50;1.88;;;;;;;25.45;nan;98548.22;4988347;28;20038;-61
2022/06/01 11:43:07;;;;;;;2.30;2.20;;;;;;;25.59;nan;98553.22;4989367;28;20390;-60
2022/06/01 11:45:42;;;;;;;2.25;2.13;;;;;;;25.27;nan;98560.19;4990949;28;20061;-60
2022/06/01 11:48:11;;;;;;;2.50;2.05;;;;;;;25.33;nan;98557.09;4988589;28;20038;-60
2022/06/01 11:50:46;;;;;;;3.47;2.03;;;;;;;25.48;nan;98558.47;4988861;28;20038;-61
2022/06/01 11:53:13;;;;;;;;;;;;;;;25.44;nan;98555.28;4988892;28;20126;-60
2022/06/01 11:55:38;;;;;;;2.08;1.98;;;;;;;25.24;nan;98556.03;4988561;28;19918;-60
2022/06/01 11:58:12;;;;;;;3.50;2.45;;;;;;;25.24;nan;98547.34;4987953;28;20041;-61
2022/06/01 12:00:44;;;;;;;2.45;2.35;;;;;;;25.13;nan;98542.94;4988278;28;20034;-61
2022/06/01 12:03:15;;;;;;;2.63;2.30;;;;;;;25.26;nan;98542.78;4989413;28;20045;-61
2022/06/01 12:06:08;;;;;;;2.35;2.25;;;;;;;25.55;nan;98537.81;4989633;28;20508;-60
2022/06/01 12:08:54;;;;;;;3.05;2.30;;;;;;;25.65;nan;98538.75;4988377;28;20613;-61
2022/06/01 12:11:38;;;;;;;2.50;2.28;;;;;;;25.80;nan;98527.00;4991877;28;20119;-62
2022/06/01 12:14:28;;;;;;;2.20;2.10;;;;;;;25.93;nan;98528.47;4990231;28;20582;-61
2022/06/01 12:17:17;;;;;;;3.17;2.38;;;;;;;25.91;nan;98522.53;4990190;28;20045;-63
2022/06/01 12:19:45;;;;;;;2.67;2.58;;;;;;;26.26;nan;98524.84;4990930;28;20038;-61
2022/06/01 12:28:31;;;;;;;4.55;2.40;;;;;;;27.03;nan;98516.47;4988581;28;20104;-60
2022/06/01 12:31:11;;;;;;;2.72;2.53;;;;;;;27.32;nan;98514.72;4994118;28;20057;-61
2022/06/01 12:34:04;;;;;;;2.78;2.67;;;;;;;27.37;nan;98520.38;4990240;28;20433;-61
2022/06/01 12:36:50;;;;;;;2.17;2.05;;;;;;;27.52;nan;98528.75;4988597;28;20042;-61
2022/06/01 12:39:27;;;;;;;2.63;2.53;;;;;;;27.55;nan;98523.19;4992915;28;20152;-61
2022/06/01 12:41:59;;;;;;;2.83;2.72;;;;;;;27.90;nan;98523.47;4990749;28;20178;-61
2022/06/01 12:44:25;;;;;;;3.25;2.75;;;;;;;27.91;nan;98511.13;4988083;28;20376;-62